»·PEaware :: N612C KSAN-KLAX

N612C :: KSAN-KLAX

FLIGHT INFORMATION

Flight Status: Arrived
Operator: Privately registered:
United States
More flights under this callsign
Pilot: Don H. (15606)
Aircraft: BOEING 737-800
(B738)
More flights by this aircraft type
Origin: KSAN San Diego Intl-Lindbergh
United States
Destination: KLAX Los Angeles Intl
United States
More flights between these airports :: More routes between these airports
Route: CWARD2 SLI
File this flight plan on PilotEdge
Remarks:
Altitude:
(Current/Filed)
10,000ft
Speed:
(Current/Filed)
335kts
Departed: 12-Aug-19 01:52 PM
Arrived: 12-Aug-19 02:17 PM
Distance/Time
Traveled:
95nm/0:24
Distance/Time
To Go:
Arrived

Flight Plot

Page will automatically refresh every two minutes.


Map Options




Map Legend


Flown Route
Filed Route
Departure Airport
Arrival Airport
Navaid (VOR, NDB)
Fix

Horizontal Profiles

Position Reports

Time Latitude Longitude Heading Altitude Ground
Speed
12-Aug-19 13:32 32.733215 -117.196882 134 18ft 0kts
12-Aug-19 13:33 32.733215 -117.196882 134 18ft 0kts
12-Aug-19 13:34 32.733215 -117.196882 134 18ft 0kts
12-Aug-19 13:35 32.733215 -117.196882 134 18ft 0kts
12-Aug-19 13:36 32.733215 -117.196882 134 18ft 0kts
12-Aug-19 13:37 32.733215 -117.196882 134 18ft 0kts
12-Aug-19 13:38 32.733215 -117.196882 134 18ft 0kts
12-Aug-19 13:39 32.733215 -117.196882 134 18ft 0kts
12-Aug-19 13:40 32.733215 -117.196882 134 18ft 0kts
12-Aug-19 13:41 32.733215 -117.196882 134 18ft 0kts
12-Aug-19 13:42 32.733492 -117.197029 154 17ft 2kts
12-Aug-19 13:43 32.733635 -117.197219 91 17ft 0kts
12-Aug-19 13:44 32.733635 -117.197219 91 17ft 0kts
12-Aug-19 13:45 32.733756 -117.195554 86 20ft 14kts
12-Aug-19 13:46 32.733018 -117.191707 105 20ft 9kts
12-Aug-19 13:47 32.731495 -117.185442 106 17ft 26kts
12-Aug-19 13:48 32.729619 -117.177725 106 21ft 19kts
12-Aug-19 13:49 32.729487 -117.177014 89 22ft 0kts
12-Aug-19 13:50 32.730243 -117.176152 292 24ft 0kts
12-Aug-19 13:51 32.733236 -117.188344 286 21ft 161kts
12-Aug-19 13:52 32.753939 -117.245371 307 2923ft 222kts
12-Aug-19 13:53 32.794537 -117.308743 300 4500ft 281kts
12-Aug-19 13:54 32.839849 -117.381823 307 6473ft 278kts
12-Aug-19 13:55 32.887865 -117.456022 307 9886ft 298kts
12-Aug-19 13:56 32.937583 -117.533198 307 9927ft 292kts
12-Aug-19 13:57 32.987101 -117.610294 307 9926ft 292kts
12-Aug-19 13:58 33.036594 -117.687544 307 9926ft 292kts
12-Aug-19 13:59 33.090976 -117.759049 321 9927ft 292kts
12-Aug-19 14:00 33.151511 -117.819405 319 9926ft 292kts
12-Aug-19 14:01 33.219832 -117.870191 347 9932ft 293kts
12-Aug-19 14:02 33.299766 -117.888776 348 9926ft 292kts
12-Aug-19 14:03 33.379406 -117.908479 348 9926ft 292kts
12-Aug-19 14:04 33.457619 -117.935494 343 9926ft 292kts
12-Aug-19 14:05 33.535297 -117.963800 343 9845ft 282kts
12-Aug-19 14:06 33.609619 -117.990920 343 8570ft 275kts
12-Aug-19 14:07 33.682005 -118.017372 343 7312ft 271kts
12-Aug-19 14:08 33.755224 -118.044169 343 6926ft 280kts
12-Aug-19 14:09 33.829251 -118.071306 343 6337ft 271kts
12-Aug-19 14:10 33.898425 -118.096705 343 5439ft 256kts
12-Aug-19 14:11 33.963490 -118.123700 322 4943ft 243kts
12-Aug-19 14:12 33.975942 -118.193952 262 5017ft 209kts
12-Aug-19 14:13 33.965105 -118.257213 241 3851ft 186kts
12-Aug-19 14:14 33.945343 -118.309514 258 1773ft 150kts
12-Aug-19 14:15 33.940010 -118.357395 262 574ft 141kts
12-Aug-19 14:16 33.936127 -118.394769 263 109ft 31kts
12-Aug-19 14:17 33.936572 -118.401423 264 119ft 25kts
12-Aug-19 14:18 33.935871 -118.407703 265 126ft 20kts
12-Aug-19 14:19 33.934823 -118.418152 263 119ft 32kts
12-Aug-19 14:20 33.934770 -118.419890 286 116ft 0kts
12-Aug-19 14:21 33.936289 -118.420328 356 115ft 16kts
12-Aug-19 14:22 33.937016 -118.420413 342 115ft 0kts
12-Aug-19 14:23 33.937406 -118.422268 289 110ft 18kts
12-Aug-19 14:24 33.938811 -118.423021 353 108ft 0kts

Navigation Log

Ident Type
Flight plan parsing failed, navigation log unavailable